sensor_id;sensor_type;location;lat;lon;timestamp;P1;durP1;ratioP1;P2;durP2;ratioP2
78344;SDS011;67620;51.134;6.548;2024-02-23T00:01:47;0.47;;;0.30;;
78344;SDS011;67620;51.134;6.548;2024-02-23T00:04:13;0.30;;;0.20;;
78344;SDS011;67620;51.134;6.548;2024-02-23T00:06:39;0.17;;;0.17;;
78344;SDS011;67620;51.134;6.548;2024-02-23T00:09:05;1.92;;;0.40;;
78344;SDS011;67620;51.134;6.548;2024-02-23T00:11:30;1.17;;;0.50;;
78344;SDS011;67620;51.134;6.548;2024-02-23T00:13:58;0.35;;;0.30;;
78344;SDS011;67620;51.134;6.548;2024-02-23T00:16:24;0.40;;;0.30;;
78344;SDS011;67620;51.134;6.548;2024-02-23T00:18:50;2.42;;;0.73;;
78344;SDS011;67620;51.134;6.548;2024-02-23T00:21:15;1.27;;;0.50;;
78344;SDS011;67620;51.134;6.548;2024-02-23T00:23:41;1.17;;;0.63;;
78344;SDS011;67620;51.134;6.548;2024-02-23T00:26:06;1.30;;;0.75;;
78344;SDS011;67620;51.134;6.548;2024-02-23T00:28:32;3.30;;;1.20;;
78344;SDS011;67620;51.134;6.548;2024-02-23T00:30:57;2.50;;;1.27;;
78344;SDS011;67620;51.134;6.548;2024-02-23T00:33:23;4.00;;;1.08;;
78344;SDS011;67620;51.134;6.548;2024-02-23T00:35:49;2.38;;;1.35;;
78344;SDS011;67620;51.134;6.548;2024-02-23T00:38:14;2.75;;;1.27;;
78344;SDS011;67620;51.134;6.548;2024-02-23T00:40:40;3.67;;;1.33;;
78344;SDS011;67620;51.134;6.548;2024-02-23T00:43:05;3.47;;;1.70;;
78344;SDS011;67620;51.134;6.548;2024-02-23T00:45:31;4.50;;;1.40;;
78344;SDS011;67620;51.134;6.548;2024-02-23T00:47:56;5.47;;;2.47;;
78344;SDS011;67620;51.134;6.548;2024-02-23T00:50:22;2.05;;;0.77;;
78344;SDS011;67620;51.134;6.548;2024-02-23T00:52:52;1.85;;;0.90;;
78344;SDS011;67620;51.134;6.548;2024-02-23T00:57:44;1.60;;;0.90;;
78344;SDS011;67620;51.134;6.548;2024-02-23T01:00:10;1.75;;;0.52;;
78344;SDS011;67620;51.134;6.548;2024-02-23T01:02:36;6.82;;;1.55;;
78344;SDS011;67620;51.134;6.548;2024-02-23T01:05:02;3.70;;;1.65;;
78344;SDS011;67620;51.134;6.548;2024-02-23T01:07:29;2.45;;;0.82;;
78344;SDS011;67620;51.134;6.548;2024-02-23T01:09:54;5.05;;;1.02;;
78344;SDS011;67620;51.134;6.548;2024-02-23T01:12:20;3.60;;;0.98;;
78344;SDS011;67620;51.134;6.548;2024-02-23T01:14:45;5.28;;;1.00;;
78344;SDS011;67620;51.134;6.548;2024-02-23T01:17:13;1.45;;;0.50;;
78344;SDS011;67620;51.134;6.548;2024-02-23T01:19:40;4.65;;;1.13;;
78344;SDS011;67620;51.134;6.548;2024-02-23T01:24:32;3.63;;;0.70;;
78344;SDS011;67620;51.134;6.548;2024-02-23T01:26:57;2.10;;;0.65;;
78344;SDS011;67620;51.134;6.548;2024-02-23T01:29:23;4.15;;;1.13;;
78344;SDS011;67620;51.134;6.548;2024-02-23T01:34:16;3.85;;;1.15;;
78344;SDS011;67620;51.134;6.548;2024-02-23T01:36:42;2.75;;;1.33;;
78344;SDS011;67620;51.134;6.548;2024-02-23T01:39:07;2.00;;;1.23;;
78344;SDS011;67620;51.134;6.548;2024-02-23T01:41:33;3.15;;;1.30;;
78344;SDS011;67620;51.134;6.548;2024-02-23T01:43:58;1.48;;;0.77;;
78344;SDS011;67620;51.134;6.548;2024-02-23T01:46:24;2.22;;;0.85;;
78344;SDS011;67620;51.134;6.548;2024-02-23T01:48:50;4.43;;;0.73;;
78344;SDS011;67620;51.134;6.548;2024-02-23T01:51:15;1.80;;;0.52;;
78344;SDS011;67620;51.134;6.548;2024-02-23T01:53:41;3.63;;;1.05;;
78344;SDS011;67620;51.134;6.548;2024-02-23T01:56:08;3.13;;;1.30;;
78344;SDS011;67620;51.134;6.548;2024-02-23T01:58:36;3.67;;;1.45;;
78344;SDS011;67620;51.134;6.548;2024-02-23T02:01:03;2.42;;;0.63;;
78344;SDS011;67620;51.134;6.548;2024-02-23T02:03:28;1.45;;;0.93;;
78344;SDS011;67620;51.134;6.548;2024-02-23T02:05:54;1.45;;;0.80;;
78344;SDS011;67620;51.134;6.548;2024-02-23T02:08:23;4.78;;;1.40;;
78344;SDS011;67620;51.134;6.548;2024-02-23T02:10:50;9.70;;;1.98;;
78344;SDS011;67620;51.134;6.548;2024-02-23T02:13:16;1.00;;;0.55;;
78344;SDS011;67620;51.134;6.548;2024-02-23T02:15:41;1.25;;;0.47;;
78344;SDS011;67620;51.134;6.548;2024-02-23T02:18:09;3.55;;;0.50;;
78344;SDS011;67620;51.134;6.548;2024-02-23T02:20:35;3.28;;;0.55;;
78344;SDS011;67620;51.134;6.548;2024-02-23T02:25:27;1.10;;;0.22;;
78344;SDS011;67620;51.134;6.548;2024-02-23T02:27:52;1.23;;;0.43;;
78344;SDS011;67620;51.134;6.548;2024-02-23T02:30:18;0.88;;;0.55;;
78344;SDS011;67620;51.134;6.548;2024-02-23T02:32:44;1.35;;;0.40;;
78344;SDS011;67620;51.134;6.548;2024-02-23T02:35:10;3.78;;;0.40;;
78344;SDS011;67620;51.134;6.548;2024-02-23T02:37:39;3.75;;;0.32;;
78344;SDS011;67620;51.134;6.548;2024-02-23T02:40:05;2.05;;;0.20;;
78344;SDS011;67620;51.134;6.548;2024-02-23T02:44:58;0.50;;;0.17;;
78344;SDS011;67620;51.134;6.548;2024-02-23T02:47:23;1.90;;;0.20;;
78344;SDS011;67620;51.134;6.548;2024-02-23T02:49:49;0.63;;;0.20;;
78344;SDS011;67620;51.134;6.548;2024-02-23T02:52:15;0.70;;;0.20;;
78344;SDS011;67620;51.134;6.548;2024-02-23T02:54:40;4.38;;;0.45;;
78344;SDS011;67620;51.134;6.548;2024-02-23T02:57:06;1.55;;;0.28;;
78344;SDS011;67620;51.134;6.548;2024-02-23T02:59:35;4.50;;;0.20;;
78344;SDS011;67620;51.134;6.548;2024-02-23T03:02:01;2.15;;;0.35;;
78344;SDS011;67620;51.134;6.548;2024-02-23T03:04:26;1.95;;;0.28;;
78344;SDS011;67620;51.134;6.548;2024-02-23T03:06:52;0.80;;;0.73;;
78344;SDS011;67620;51.134;6.548;2024-02-23T03:09:17;1.40;;;0.15;;
78344;SDS011;67620;51.134;6.548;2024-02-23T03:11:43;3.55;;;0.75;;
78344;SDS011;67620;51.134;6.548;2024-02-23T03:14:09;0.60;;;0.20;;
78344;SDS011;67620;51.134;6.548;2024-02-23T03:16:35;1.50;;;0.40;;
78344;SDS011;67620;51.134;6.548;2024-02-23T03:19:02;3.10;;;0.70;;
78344;SDS011;67620;51.134;6.548;2024-02-23T03:21:28;0.63;;;0.30;;
78344;SDS011;67620;51.134;6.548;2024-02-23T03:23:53;0.82;;;0.25;;
78344;SDS011;67620;51.134;6.548;2024-02-23T03:26:19;2.15;;;0.20;;
78344;SDS011;67620;51.134;6.548;2024-02-23T03:28:44;3.63;;;0.60;;
78344;SDS011;67620;51.134;6.548;2024-02-23T03:31:10;1.95;;;0.30;;
78344;SDS011;67620;51.134;6.548;2024-02-23T03:33:35;0.63;;;0.13;;
78344;SDS011;67620;51.134;6.548;2024-02-23T03:36:02;0.43;;;0.20;;
78344;SDS011;67620;51.134;6.548;2024-02-23T03:38:28;0.40;;;0.05;;
78344;SDS011;67620;51.134;6.548;2024-02-23T03:40:55;4.07;;;0.70;;
78344;SDS011;67620;51.134;6.548;2024-02-23T03:43:21;7.10;;;0.77;;
78344;SDS011;67620;51.134;6.548;2024-02-23T03:45:46;2.17;;;0.30;;
78344;SDS011;67620;51.134;6.548;2024-02-23T03:48:12;3.25;;;0.35;;
78344;SDS011;67620;51.134;6.548;2024-02-23T03:50:38;1.55;;;0.20;;
78344;SDS011;67620;51.134;6.548;2024-02-23T03:53:03;0.85;;;0.30;;
78344;SDS011;67620;51.134;6.548;2024-02-23T03:55:29;1.85;;;0.30;;
78344;SDS011;67620;51.134;6.548;2024-02-23T03:57:55;1.35;;;0.35;;
78344;SDS011;67620;51.134;6.548;2024-02-23T04:00:20;1.83;;;0.57;;
78344;SDS011;67620;51.134;6.548;2024-02-23T04:02:48;1.33;;;0.32;;
78344;SDS011;67620;51.134;6.548;2024-02-23T04:05:14;3.50;;;0.32;;
78344;SDS011;67620;51.134;6.548;2024-02-23T04:07:39;2.72;;;0.60;;
78344;SDS011;67620;51.134;6.548;2024-02-23T04:10:05;5.93;;;1.10;;
78344;SDS011;67620;51.134;6.548;2024-02-23T04:12:31;1.75;;;0.40;;
78344;SDS011;67620;51.134;6.548;2024-02-23T04:14:57;7.35;;;0.40;;
78344;SDS011;67620;51.134;6.548;2024-02-23T04:17:22;1.02;;;0.63;;
78344;SDS011;67620;51.134;6.548;2024-02-23T04:19:48;3.42;;;0.80;;
78344;SDS011;67620;51.134;6.548;2024-02-23T04:22:13;0.55;;;0.20;;
78344;SDS011;67620;51.134;6.548;2024-02-23T04:24:39;4.13;;;0.20;;
78344;SDS011;67620;51.134;6.548;2024-02-23T04:27:05;0.98;;;0.35;;
78344;SDS011;67620;51.134;6.548;2024-02-23T04:31:59;2.22;;;0.30;;
78344;SDS011;67620;51.134;6.548;2024-02-23T04:34:24;0.52;;;0.22;;
78344;SDS011;67620;51.134;6.548;2024-02-23T04:36:50;3.85;;;0.63;;
78344;SDS011;67620;51.134;6.548;2024-02-23T04:39:15;1.63;;;0.40;;
78344;SDS011;67620;51.134;6.548;2024-02-23T04:41:41;2.92;;;0.22;;
78344;SDS011;67620;51.134;6.548;2024-02-23T04:44:07;1.20;;;0.20;;
78344;SDS011;67620;51.134;6.548;2024-02-23T04:46:32;1.23;;;0.13;;
78344;SDS011;67620;51.134;6.548;2024-02-23T04:51:25;4.47;;;0.30;;
78344;SDS011;67620;51.134;6.548;2024-02-23T04:53:50;5.28;;;0.90;;
78344;SDS011;67620;51.134;6.548;2024-02-23T04:56:16;0.57;;;0.20;;
78344;SDS011;67620;51.134;6.548;2024-02-23T04:58:42;5.22;;;0.57;;
78344;SDS011;67620;51.134;6.548;2024-02-23T05:01:08;4.80;;;0.50;;
78344;SDS011;67620;51.134;6.548;2024-02-23T05:03:35;2.15;;;0.40;;
78344;SDS011;67620;51.134;6.548;2024-02-23T05:06:02;6.97;;;0.88;;
78344;SDS011;67620;51.134;6.548;2024-02-23T05:10:55;5.35;;;0.52;;
78344;SDS011;67620;51.134;6.548;2024-02-23T05:13:21;1.92;;;0.57;;
78344;SDS011;67620;51.134;6.548;2024-02-23T05:15:46;8.40;;;0.70;;
78344;SDS011;67620;51.134;6.548;2024-02-23T05:18:12;2.08;;;0.63;;
78344;SDS011;67620;51.134;6.548;2024-02-23T05:20:38;2.47;;;0.30;;
78344;SDS011;67620;51.134;6.548;2024-02-23T05:23:03;4.65;;;0.73;;
78344;SDS011;67620;51.134;6.548;2024-02-23T05:25:29;6.85;;;2.60;;
78344;SDS011;67620;51.134;6.548;2024-02-23T05:27:55;7.47;;;1.08;;
78344;SDS011;67620;51.134;6.548;2024-02-23T05:30:20;2.30;;;0.60;;
78344;SDS011;67620;51.134;6.548;2024-02-23T05:32:47;3.47;;;0.73;;
78344;SDS011;67620;51.134;6.548;2024-02-23T05:37:38;3.58;;;0.50;;
78344;SDS011;67620;51.134;6.548;2024-02-23T05:40:04;1.63;;;0.32;;
78344;SDS011;67620;51.134;6.548;2024-02-23T05:42:32;4.60;;;0.40;;
78344;SDS011;67620;51.134;6.548;2024-02-23T05:44:57;1.10;;;0.45;;
78344;SDS011;67620;51.134;6.548;2024-02-23T05:47:23;4.60;;;1.05;;
78344;SDS011;67620;51.134;6.548;2024-02-23T05:49:50;1.63;;;0.20;;
78344;SDS011;67620;51.134;6.548;2024-02-23T05:52:15;3.35;;;0.47;;
78344;SDS011;67620;51.134;6.548;2024-02-23T05:54:41;3.55;;;0.73;;
78344;SDS011;67620;51.134;6.548;2024-02-23T05:57:07;3.60;;;0.55;;
78344;SDS011;67620;51.134;6.548;2024-02-23T05:59:33;6.60;;;0.93;;
78344;SDS011;67620;51.134;6.548;2024-02-23T06:01:58;3.53;;;0.80;;
78344;SDS011;67620;51.134;6.548;2024-02-23T06:04:24;7.20;;;1.52;;
78344;SDS011;67620;51.134;6.548;2024-02-23T06:06:50;9.88;;;1.45;;
78344;SDS011;67620;51.134;6.548;2024-02-23T06:09:16;3.70;;;0.60;;
78344;SDS011;67620;51.134;6.548;2024-02-23T06:11:41;3.80;;;0.57;;
78344;SDS011;67620;51.134;6.548;2024-02-23T06:14:07;6.13;;;0.88;;
78344;SDS011;67620;51.134;6.548;2024-02-23T06:16:33;3.60;;;0.52;;
78344;SDS011;67620;51.134;6.548;2024-02-23T06:18:59;0.82;;;0.35;;
78344;SDS011;67620;51.134;6.548;2024-02-23T06:21:25;5.50;;;0.60;;
78344;SDS011;67620;51.134;6.548;2024-02-23T06:23:51;3.05;;;0.68;;
78344;SDS011;67620;51.134;6.548;2024-02-23T06:26:17;7.53;;;1.02;;
78344;SDS011;67620;51.134;6.548;2024-02-23T06:28:43;12.27;;;3.88;;
78344;SDS011;67620;51.134;6.548;2024-02-23T06:31:09;3.13;;;1.30;;
78344;SDS011;67620;51.134;6.548;2024-02-23T06:33:35;9.30;;;2.42;;
78344;SDS011;67620;51.134;6.548;2024-02-23T06:36:00;7.57;;;2.63;;
78344;SDS011;67620;51.134;6.548;2024-02-23T06:38:28;5.43;;;2.10;;
78344;SDS011;67620;51.134;6.548;2024-02-23T06:40:53;9.73;;;1.23;;
78344;SDS011;67620;51.134;6.548;2024-02-23T06:43:21;5.63;;;1.10;;
78344;SDS011;67620;51.134;6.548;2024-02-23T06:45:46;13.88;;;3.47;;
78344;SDS011;67620;51.134;6.548;2024-02-23T06:48:12;13.15;;;3.30;;
78344;SDS011;67620;51.134;6.548;2024-02-23T06:50:38;4.75;;;0.90;;
78344;SDS011;67620;51.134;6.548;2024-02-23T06:53:03;12.18;;;4.90;;
78344;SDS011;67620;51.134;6.548;2024-02-23T06:55:30;32.80;;;10.07;;
78344;SDS011;67620;51.134;6.548;2024-02-23T06:57:56;4.22;;;0.70;;
78344;SDS011;67620;51.134;6.548;2024-02-23T07:00:21;6.38;;;1.42;;
78344;SDS011;67620;51.134;6.548;2024-02-23T07:02:47;6.47;;;2.40;;
78344;SDS011;67620;51.134;6.548;2024-02-23T07:05:12;14.27;;;5.30;;
78344;SDS011;67620;51.134;6.548;2024-02-23T07:10:05;14.43;;;4.45;;
78344;SDS011;67620;51.134;6.548;2024-02-23T07:14:57;8.93;;;4.18;;
78344;SDS011;67620;51.134;6.548;2024-02-23T07:17:23;9.10;;;4.22;;
78344;SDS011;67620;51.134;6.548;2024-02-23T07:19:48;4.13;;;1.27;;
78344;SDS011;67620;51.134;6.548;2024-02-23T07:22:15;4.43;;;1.20;;
78344;SDS011;67620;51.134;6.548;2024-02-23T07:24:43;5.10;;;1.40;;
78344;SDS011;67620;51.134;6.548;2024-02-23T07:27:09;7.85;;;3.58;;
78344;SDS011;67620;51.134;6.548;2024-02-23T07:29:34;3.70;;;1.50;;
78344;SDS011;67620;51.134;6.548;2024-02-23T07:32:00;9.20;;;4.38;;
78344;SDS011;67620;51.134;6.548;2024-02-23T07:34:26;3.45;;;0.98;;
78344;SDS011;67620;51.134;6.548;2024-02-23T07:36:52;8.55;;;3.40;;
78344;SDS011;67620;51.134;6.548;2024-02-23T07:39:18;4.63;;;1.00;;
78344;SDS011;67620;51.134;6.548;2024-02-23T07:41:44;11.80;;;3.58;;
78344;SDS011;67620;51.134;6.548;2024-02-23T07:44:10;9.82;;;4.13;;
78344;SDS011;67620;51.134;6.548;2024-02-23T07:46:36;7.15;;;2.10;;
78344;SDS011;67620;51.134;6.548;2024-02-23T07:49:02;2.05;;;0.90;;
78344;SDS011;67620;51.134;6.548;2024-02-23T07:51:29;5.97;;;1.40;;
78344;SDS011;67620;51.134;6.548;2024-02-23T07:53:54;4.88;;;1.92;;
78344;SDS011;67620;51.134;6.548;2024-02-23T07:56:20;8.98;;;3.80;;
78344;SDS011;67620;51.134;6.548;2024-02-23T07:58:46;8.18;;;2.80;;
78344;SDS011;67620;51.134;6.548;2024-02-23T08:01:12;6.68;;;2.38;;
78344;SDS011;67620;51.134;6.548;2024-02-23T08:03:39;5.10;;;1.48;;
78344;SDS011;67620;51.134;6.548;2024-02-23T08:06:05;5.43;;;2.55;;
78344;SDS011;67620;51.134;6.548;2024-02-23T08:08:31;4.93;;;0.60;;
78344;SDS011;67620;51.134;6.548;2024-02-23T08:11:00;7.20;;;2.15;;
78344;SDS011;67620;51.134;6.548;2024-02-23T08:13:26;4.60;;;1.67;;
78344;SDS011;67620;51.134;6.548;2024-02-23T08:15:52;3.53;;;1.10;;
78344;SDS011;67620;51.134;6.548;2024-02-23T08:18:17;2.30;;;0.90;;
78344;SDS011;67620;51.134;6.548;2024-02-23T08:20:43;8.77;;;1.50;;
78344;SDS011;67620;51.134;6.548;2024-02-23T08:23:08;2.35;;;0.52;;
78344;SDS011;67620;51.134;6.548;2024-02-23T08:25:34;5.25;;;1.30;;
78344;SDS011;67620;51.134;6.548;2024-02-23T08:30:26;3.70;;;1.10;;
78344;SDS011;67620;51.134;6.548;2024-02-23T08:32:52;5.80;;;1.05;;
78344;SDS011;67620;51.134;6.548;2024-02-23T08:35:17;3.05;;;1.42;;
78344;SDS011;67620;51.134;6.548;2024-02-23T08:37:43;5.65;;;1.15;;
78344;SDS011;67620;51.134;6.548;2024-02-23T08:40:09;7.05;;;1.92;;
78344;SDS011;67620;51.134;6.548;2024-02-23T08:42:35;5.70;;;1.40;;
78344;SDS011;67620;51.134;6.548;2024-02-23T08:45:00;4.25;;;1.10;;
78344;SDS011;67620;51.134;6.548;2024-02-23T08:47:26;3.97;;;0.70;;
78344;SDS011;67620;51.134;6.548;2024-02-23T08:49:56;2.75;;;0.52;;
78344;SDS011;67620;51.134;6.548;2024-02-23T08:52:22;7.72;;;2.08;;
78344;SDS011;67620;51.134;6.548;2024-02-23T08:54:48;7.78;;;1.52;;
78344;SDS011;67620;51.134;6.548;2024-02-23T08:57:14;4.32;;;1.15;;
78344;SDS011;67620;51.134;6.548;2024-02-23T08:59:44;16.15;;;4.90;;
78344;SDS011;67620;51.134;6.548;2024-02-23T09:02:10;9.55;;;1.52;;
78344;SDS011;67620;51.134;6.548;2024-02-23T09:04:35;8.10;;;1.77;;
78344;SDS011;67620;51.134;6.548;2024-02-23T09:07:01;9.75;;;3.58;;
78344;SDS011;67620;51.134;6.548;2024-02-23T09:09:27;20.38;;;7.30;;
78344;SDS011;67620;51.134;6.548;2024-02-23T09:11:53;7.47;;;2.08;;
78344;SDS011;67620;51.134;6.548;2024-02-23T09:14:18;28.27;;;11.10;;
78344;SDS011;67620;51.134;6.548;2024-02-23T09:16:44;13.23;;;4.20;;
78344;SDS011;67620;51.134;6.548;2024-02-23T09:19:11;5.75;;;2.25;;
78344;SDS011;67620;51.134;6.548;2024-02-23T09:21:37;16.92;;;6.93;;
78344;SDS011;67620;51.134;6.548;2024-02-23T09:24:03;26.45;;;10.52;;
78344;SDS011;67620;51.134;6.548;2024-02-23T09:26:29;14.20;;;4.57;;
78344;SDS011;67620;51.134;6.548;2024-02-23T09:28:56;34.00;;;12.52;;
78344;SDS011;67620;51.134;6.548;2024-02-23T09:31:21;37.08;;;16.77;;
78344;SDS011;67620;51.134;6.548;2024-02-23T09:33:47;7.50;;;3.97;;
78344;SDS011;67620;51.134;6.548;2024-02-23T09:36:15;6.82;;;3.17;;
78344;SDS011;67620;51.134;6.548;2024-02-23T09:38:41;9.43;;;3.42;;
78344;SDS011;67620;51.134;6.548;2024-02-23T09:41:10;15.43;;;7.53;;
78344;SDS011;67620;51.134;6.548;2024-02-23T09:43:42;10.40;;;4.30;;
78344;SDS011;67620;51.134;6.548;2024-02-23T09:46:11;16.65;;;8.32;;
78344;SDS011;67620;51.134;6.548;2024-02-23T09:51:03;9.68;;;4.85;;
78344;SDS011;67620;51.134;6.548;2024-02-23T09:53:30;20.05;;;7.88;;
78344;SDS011;67620;51.134;6.548;2024-02-23T09:55:56;5.13;;;1.10;;
78344;SDS011;67620;51.134;6.548;2024-02-23T09:58:25;31.35;;;12.23;;
78344;SDS011;67620;51.134;6.548;2024-02-23T10:00:51;14.35;;;6.07;;
78344;SDS011;67620;51.134;6.548;2024-02-23T10:03:17;31.02;;;10.35;;
78344;SDS011;67620;51.134;6.548;2024-02-23T10:05:43;12.20;;;4.97;;
78344;SDS011;67620;51.134;6.548;2024-02-23T10:08:10;21.25;;;7.75;;
78344;SDS011;67620;51.134;6.548;2024-02-23T10:10:37;40.95;;;13.80;;
78344;SDS011;67620;51.134;6.548;2024-02-23T10:13:03;8.27;;;3.20;;
78344;SDS011;67620;51.134;6.548;2024-02-23T10:15:32;5.47;;;2.92;;
78344;SDS011;67620;51.134;6.548;2024-02-23T10:17:58;3.00;;;0.90;;
78344;SDS011;67620;51.134;6.548;2024-02-23T10:20:24;0.98;;;0.43;;
78344;SDS011;67620;51.134;6.548;2024-02-23T10:22:49;3.17;;;0.60;;
78344;SDS011;67620;51.134;6.548;2024-02-23T10:25:15;1.92;;;0.65;;
78344;SDS011;67620;51.134;6.548;2024-02-23T10:27:41;1.75;;;0.60;;
78344;SDS011;67620;51.134;6.548;2024-02-23T10:30:10;1.55;;;0.47;;
78344;SDS011;67620;51.134;6.548;2024-02-23T10:32:40;2.42;;;0.68;;
78344;SDS011;67620;51.134;6.548;2024-02-23T10:35:11;7.22;;;1.10;;
78344;SDS011;67620;51.134;6.548;2024-02-23T10:40:07;5.22;;;0.70;;
78344;SDS011;67620;51.134;6.548;2024-02-23T10:42:35;1.02;;;0.60;;
78344;SDS011;67620;51.134;6.548;2024-02-23T10:45:03;0.88;;;0.20;;
78344;SDS011;67620;51.134;6.548;2024-02-23T10:47:30;3.22;;;0.90;;
78344;SDS011;67620;51.134;6.548;2024-02-23T10:49:58;1.17;;;0.40;;
78344;SDS011;67620;51.134;6.548;2024-02-23T10:52:26;3.35;;;0.57;;
78344;SDS011;67620;51.134;6.548;2024-02-23T10:54:52;2.20;;;0.32;;
78344;SDS011;67620;51.134;6.548;2024-02-23T10:57:19;2.40;;;0.38;;
78344;SDS011;67620;51.134;6.548;2024-02-23T10:59:45;0.95;;;0.32;;
78344;SDS011;67620;51.134;6.548;2024-02-23T11:02:11;2.83;;;1.10;;
78344;SDS011;67620;51.134;6.548;2024-02-23T11:04:41;4.63;;;1.08;;
78344;SDS011;67620;51.134;6.548;2024-02-23T11:07:12;6.43;;;0.60;;
78344;SDS011;67620;51.134;6.548;2024-02-23T11:09:38;4.78;;;0.93;;
78344;SDS011;67620;51.134;6.548;2024-02-23T11:12:05;1.48;;;0.13;;
78344;SDS011;67620;51.134;6.548;2024-02-23T11:19:31;0.98;;;0.20;;
78344;SDS011;67620;51.134;6.548;2024-02-23T11:21:59;0.80;;;0.45;;
78344;SDS011;67620;51.134;6.548;2024-02-23T11:24:25;2.55;;;0.40;;
78344;SDS011;67620;51.134;6.548;2024-02-23T11:26:57;3.70;;;0.50;;
78344;SDS011;67620;51.134;6.548;2024-02-23T11:29:25;1.60;;;0.65;;
78344;SDS011;67620;51.134;6.548;2024-02-23T11:31:53;5.07;;;0.47;;
78344;SDS011;67620;51.134;6.548;2024-02-23T11:34:26;1.58;;;0.30;;
78344;SDS011;67620;51.134;6.548;2024-02-23T11:36:52;1.00;;;0.32;;
78344;SDS011;67620;51.134;6.548;2024-02-23T11:39:19;4.50;;;0.68;;
78344;SDS011;67620;51.134;6.548;2024-02-23T11:41:47;2.88;;;0.43;;
78344;SDS011;67620;51.134;6.548;2024-02-23T11:44:14;1.75;;;0.47;;
78344;SDS011;67620;51.134;6.548;2024-02-23T11:46:42;0.85;;;0.25;;
78344;SDS011;67620;51.134;6.548;2024-02-23T11:49:11;2.70;;;0.30;;
78344;SDS011;67620;51.134;6.548;2024-02-23T11:51:37;6.55;;;0.68;;
78344;SDS011;67620;51.134;6.548;2024-02-23T11:54:03;2.30;;;0.68;;
78344;SDS011;67620;51.134;6.548;2024-02-23T11:56:29;2.40;;;0.60;;
78344;SDS011;67620;51.134;6.548;2024-02-23T12:01:21;3.28;;;0.30;;
78344;SDS011;67620;51.134;6.548;2024-02-23T12:03:47;1.13;;;0.35;;
78344;SDS011;67620;51.134;6.548;2024-02-23T12:06:13;3.88;;;0.73;;
78344;SDS011;67620;51.134;6.548;2024-02-23T12:08:40;1.85;;;0.35;;
78344;SDS011;67620;51.134;6.548;2024-02-23T12:11:07;1.00;;;0.30;;
78344;SDS011;67620;51.134;6.548;2024-02-23T12:13:34;2.50;;;0.20;;
78344;SDS011;67620;51.134;6.548;2024-02-23T12:16:01;3.28;;;0.43;;
78344;SDS011;67620;51.134;6.548;2024-02-23T12:18:27;3.63;;;0.75;;
78344;SDS011;67620;51.134;6.548;2024-02-23T12:21:05;1.27;;;0.38;;
78344;SDS011;67620;51.134;6.548;2024-02-23T12:23:41;1.50;;;0.50;;
78344;SDS011;67620;51.134;6.548;2024-02-23T12:26:08;3.33;;;0.75;;
78344;SDS011;67620;51.134;6.548;2024-02-23T12:28:35;1.88;;;0.47;;
78344;SDS011;67620;51.134;6.548;2024-02-23T12:31:02;2.97;;;0.57;;
78344;SDS011;67620;51.134;6.548;2024-02-23T12:33:32;0.55;;;0.20;;
78344;SDS011;67620;51.134;6.548;2024-02-23T12:36:03;2.45;;;0.90;;
78344;SDS011;67620;51.134;6.548;2024-02-23T12:38:29;5.90;;;0.70;;
78344;SDS011;67620;51.134;6.548;2024-02-23T12:40:55;5.35;;;0.80;;
78344;SDS011;67620;51.134;6.548;2024-02-23T12:43:21;3.42;;;0.45;;
78344;SDS011;67620;51.134;6.548;2024-02-23T12:45:49;2.15;;;0.75;;
78344;SDS011;67620;51.134;6.548;2024-02-23T12:48:15;3.13;;;0.30;;
78344;SDS011;67620;51.134;6.548;2024-02-23T12:50:41;3.97;;;0.73;;
78344;SDS011;67620;51.134;6.548;2024-02-23T12:53:08;3.78;;;0.35;;
78344;SDS011;67620;51.134;6.548;2024-02-23T12:55:34;0.52;;;0.13;;
78344;SDS011;67620;51.134;6.548;2024-02-23T12:58:01;2.38;;;1.05;;
78344;SDS011;67620;51.134;6.548;2024-02-23T13:00:27;3.08;;;0.50;;
78344;SDS011;67620;51.134;6.548;2024-02-23T13:02:53;5.13;;;0.98;;
78344;SDS011;67620;51.134;6.548;2024-02-23T13:05:19;2.17;;;0.43;;
78344;SDS011;67620;51.134;6.548;2024-02-23T13:07:45;3.63;;;0.68;;
78344;SDS011;67620;51.134;6.548;2024-02-23T13:10:12;1.30;;;0.45;;
78344;SDS011;67620;51.134;6.548;2024-02-23T13:12:37;0.43;;;0.22;;
78344;SDS011;67620;51.134;6.548;2024-02-23T13:15:03;5.78;;;0.50;;
78344;SDS011;67620;51.134;6.548;2024-02-23T13:17:29;1.75;;;0.95;;
78344;SDS011;67620;51.134;6.548;2024-02-23T13:19:55;4.53;;;0.70;;
78344;SDS011;67620;51.134;6.548;2024-02-23T13:22:20;5.57;;;0.88;;
78344;SDS011;67620;51.134;6.548;2024-02-23T13:24:46;1.92;;;0.30;;
78344;SDS011;67620;51.134;6.548;2024-02-23T13:27:11;4.88;;;0.30;;
78344;SDS011;67620;51.134;6.548;2024-02-23T13:29:37;4.72;;;0.65;;
78344;SDS011;67620;51.134;6.548;2024-02-23T13:32:02;5.22;;;0.50;;
78344;SDS011;67620;51.134;6.548;2024-02-23T13:34:28;3.78;;;0.70;;
78344;SDS011;67620;51.134;6.548;2024-02-23T13:36:53;1.52;;;0.35;;
78344;SDS011;67620;51.134;6.548;2024-02-23T13:39:19;2.05;;;0.55;;
78344;SDS011;67620;51.134;6.548;2024-02-23T13:41:45;3.30;;;0.68;;
78344;SDS011;67620;51.134;6.548;2024-02-23T13:44:11;1.50;;;0.50;;
78344;SDS011;67620;51.134;6.548;2024-02-23T13:46:39;0.85;;;0.20;;
78344;SDS011;67620;51.134;6.548;2024-02-23T13:49:05;2.97;;;0.30;;
78344;SDS011;67620;51.134;6.548;2024-02-23T13:51:33;1.20;;;0.50;;
78344;SDS011;67620;51.134;6.548;2024-02-23T13:53:59;0.90;;;0.20;;
78344;SDS011;67620;51.134;6.548;2024-02-23T13:56:25;1.02;;;0.20;;
78344;SDS011;67620;51.134;6.548;2024-02-23T13:58:51;2.22;;;0.50;;
78344;SDS011;67620;51.134;6.548;2024-02-23T14:01:17;0.50;;;0.32;;
78344;SDS011;67620;51.134;6.548;2024-02-23T14:03:42;2.85;;;0.55;;
78344;SDS011;67620;51.134;6.548;2024-02-23T14:06:08;2.22;;;0.28;;
78344;SDS011;67620;51.134;6.548;2024-02-23T14:08:34;2.25;;;0.43;;
78344;SDS011;67620;51.134;6.548;2024-02-23T14:11:02;2.60;;;1.17;;
78344;SDS011;67620;51.134;6.548;2024-02-23T14:13:30;1.48;;;0.45;;
78344;SDS011;67620;51.134;6.548;2024-02-23T14:15:57;2.50;;;0.40;;
78344;SDS011;67620;51.134;6.548;2024-02-23T14:18:23;2.13;;;0.50;;
78344;SDS011;67620;51.134;6.548;2024-02-23T14:20:48;3.15;;;0.40;;
78344;SDS011;67620;51.134;6.548;2024-02-23T14:23:14;2.15;;;0.50;;
78344;SDS011;67620;51.134;6.548;2024-02-23T14:25:39;1.45;;;0.52;;
78344;SDS011;67620;51.134;6.548;2024-02-23T14:28:05;3.60;;;0.47;;
78344;SDS011;67620;51.134;6.548;2024-02-23T14:30:31;5.53;;;0.75;;
78344;SDS011;67620;51.134;6.548;2024-02-23T14:32:56;2.67;;;0.40;;
78344;SDS011;67620;51.134;6.548;2024-02-23T14:35:22;2.08;;;0.80;;
78344;SDS011;67620;51.134;6.548;2024-02-23T14:37:47;3.15;;;0.55;;
78344;SDS011;67620;51.134;6.548;2024-02-23T14:40:13;2.33;;;0.82;;
78344;SDS011;67620;51.134;6.548;2024-02-23T14:42:39;0.95;;;0.22;;
78344;SDS011;67620;51.134;6.548;2024-02-23T14:45:06;2.47;;;0.60;;
78344;SDS011;67620;51.134;6.548;2024-02-23T14:47:32;1.35;;;0.75;;
78344;SDS011;67620;51.134;6.548;2024-02-23T14:49:57;7.00;;;3.78;;
78344;SDS011;67620;51.134;6.548;2024-02-23T14:52:23;8.70;;;3.83;;
78344;SDS011;67620;51.134;6.548;2024-02-23T14:54:49;11.90;;;7.32;;
78344;SDS011;67620;51.134;6.548;2024-02-23T14:57:14;33.05;;;15.65;;
78344;SDS011;67620;51.134;6.548;2024-02-23T14:59:40;27.55;;;14.05;;
78344;SDS011;67620;51.134;6.548;2024-02-23T15:02:12;25.05;;;11.68;;
78344;SDS011;67620;51.134;6.548;2024-02-23T15:04:44;17.02;;;8.38;;
78344;SDS011;67620;51.134;6.548;2024-02-23T15:07:10;76.80;;;34.25;;
78344;SDS011;67620;51.134;6.548;2024-02-23T15:09:36;34.08;;;16.50;;
78344;SDS011;67620;51.134;6.548;2024-02-23T15:12:01;18.90;;;8.88;;
78344;SDS011;67620;51.134;6.548;2024-02-23T15:14:27;7.93;;;3.85;;
78344;SDS011;67620;51.134;6.548;2024-02-23T15:16:52;29.48;;;13.85;;
78344;SDS011;67620;51.134;6.548;2024-02-23T15:19:18;8.82;;;4.97;;
78344;SDS011;67620;51.134;6.548;2024-02-23T15:21:43;7.13;;;2.90;;